Pescara - LIBP

Metar : SPECI LIBP 191455Z 34009KT 300V010 9999 SCT045 BKN070 11/06 Q1020=

Taf : TAF LIBP 191100Z 1912/2012 35008KT 9999 SCT025 TEMPO 1912/1918 RA=

 Scopri come leggere i bollettini codificati...


Storico

LIBP 191455Z 34009KT 300V010 9999 SCT045 BKN070 11/06 Q1020
LIBP 191450Z 34009KT 300V010 9999 SCT045 BKN070 11/06 Q1020
LIBP 191350Z AUTO 01011KT 9999 SCT045/// BKN072/// 11/06 Q1019
LIBP 191250Z AUTO 36012KT 330V030 9999 BKN041/// BKN079/// 12/06 Q1019
LIBP 191150Z AUTO 36013KT 320V030 9999 FEW041/// BKN083/// 12/06 Q1019
LIBP 191050Z AUTO 36011KT 320V030 9999 FEW035/// 12/06 Q1019
LIBP 190950Z AUTO 36011KT 9999 FEW032/// 13/07 Q1018
LIBP 190850Z AUTO 02008KT 350V050 9999 BKN028/// 12/06 Q1018
LIBP 190750Z AUTO 31004KT 280V350 9999 BKN025/// 11/06 Q1018
LIBP 190650Z AUTO 19002KT 9999 SCT025/// BKN051/// 10/06 Q1018
LIBP 190550Z AUTO 22003KT 9999 BKN047/// 10/06 Q1017
LIBP 190450Z AUTO 23003KT 200V270 9999 OVC041/// 09/06 Q1017
LIBP 190350Z AUTO VRB02KT 9999 OVC038/// 10/05 Q1016
LIBP 190250Z AUTO 20002KT 9999 SCT022/// BKN040/// 10/05 Q1016
LIBP 190150Z AUTO VRB02KT 9999 BKN020/// OVC039/// 10/06 Q1016
LIBP 190050Z AUTO 31003KT 240V030 9999 FEW022/// BKN035/// 10/06 Q1016
LIBP 182350Z AUTO 31003KT 270V360 9999 BKN033/// 11/06 Q1016
LIBP 182250Z AUTO VRB02KT 9999 BKN033/// 11/06 Q1016
LIBP 182150Z VRB04KT 9999 BKN070 11/06 Q1016
LIBP 182050Z AUTO 32005KT 280V010 9999 OVC029/// 11/07 Q1016
LIBP 181950Z 35006KT 320V020 9999 BKN030 12/07 Q1015
LIBP 181850Z 33006KT 290V020 9999 BKN022 12/08 Q1015
LIBP 181750Z 35007KT 320V020 9999 BKN050 12/08 Q1014
LIBP 181650Z 35012KT 9999 SCT010 BKN040 13/10 Q1014
LIBP 181550Z 36003KT 310V050 9999 BKN050 15/11 Q1013
LIBP 181450Z 04005KT 350V070 9999 FEW050 16/10 Q1012
LIBP 181350Z 04005KT 350V070 9999 FEW035 16/10 Q1012
LIBP 181250Z 04005KT 360V070 9999 FEW020 16/10 Q1012
LIBP 181150Z 03004KT 330V080 CAVOK 15/11 Q1013
LIBP 181050Z 03006KT 360V060 8000 SCT006 12/10 Q1013
LIBP 181037Z 03007KT 360V060 8000 SCT006 12/10 Q1013
LIBP 180956Z 04009KT 5000 BR BKN005 12/10 Q1013
LIBP 180950Z 05009KT 020V080 6000 SCT005 12/10 Q1013
LIBP 180850Z 05004KT 360V090 CAVOK 14/10 Q1012
LIBP 180750Z VRB02KT CAVOK 11/09 Q1012
LIBP 180714Z VRB01KT 7000 FEW003 10/09 Q1012
LIBP 180650Z 19003KT 6000 BKN003 09/08 Q1012
LIBP 180550Z AUTO 23005KT 7000 OVC004/// 06/06 Q1012
LIBP 180533Z AUTO 22005KT 6000 OVC004/// 06/06 Q1012
LIBP 180458Z AUTO 20003KT 180V260 6000 BKN006/// 04/04 Q1012
LIBP 180450Z AUTO VRB02KT 6000 SCT007/// 05/04 Q1012
LIBP 180350Z AUTO 27002KT 7000 NCD 05/05 Q1011
LIBP 180316Z AUTO VRB02KT 7000 NCD 05/05 Q1011
LIBP 180304Z AUTO VRB02KT 1300 R22/P1500N BR NCD 05/05 Q1011
LIBP 180303Z AUTO VRB02KT 1600 BR NCD 05/05 Q1011
LIBP 180302Z AUTO VRB01KT 4900 BR NCD 06/05 Q1011
LIBP 180250Z AUTO VRB01KT 6000 NCD 06/06 Q1011
LIBP 180229Z AUTO 20002KT 2100 BR NCD 06/05 Q1011
LIBP 180225Z AUTO VRB02KT 6000 NCD 06/06 Q1011
LIBP 180200Z AUTO 22003KT 2200 BR NCD 05/05 Q1011
LIBP 180150Z AUTO 22004KT 7000 NCD 06/06 Q1011
LIBP 180050Z AUTO 22004KT 8000 NCD 07/06 Q1011
LIBP 180003Z AUTO 20003KT 6000 NCD 07/06 Q1012
LIBP 172351Z AUTO VRB01KT 4900 BR NCD 07/06 Q1012
LIBP 172350Z AUTO VRB01KT 5000 BR NCD 07/06 Q1012
LIBP 172250Z AUTO 22003KT 8000 NCD 09/08 Q1012
LIBP 172150Z 23003KT 200V260 CAVOK 09/08 Q1012
LIBP 172050Z 21003KT CAVOK 10/08 Q1013
LIBP 171950Z VRB01KT CAVOK 11/08 Q1013
LIBP 171850Z VRB02KT CAVOK 13/09 Q1013
LIBP 171750Z 03004KT CAVOK 13/11 Q1013
LIBP 171650Z 05004KT CAVOK 15/11 Q1013
LIBP 171550Z 07006KT 030V090 CAVOK 16/11 Q1013
LIBP 171450Z 06007KT CAVOK 16/10 Q1013
LIBP 171350Z 06008KT CAVOK 16/11 Q1014
LIBP 171250Z 05008KT 010V080 CAVOK 17/12 Q1015
LIBP 171150Z 03007KT 360V060 CAVOK 17/11 Q1015
LIBP 171050Z 04008KT 360V070 CAVOK 17/11 Q1016
LIBP 170950Z 04006KT 360V070 9999 FEW020 16/11 Q1017
LIBP 170850Z VRB03KT 9999 FEW015 16/10 Q1017
LIBP 170750Z 22004KT CAVOK 12/07 Q1017
LIBP 170650Z 21003KT CAVOK 08/05 Q1017
LIBP 170550Z AUTO VRB01KT 9999 NCD 05/04 Q1016
LIBP 170450Z AUTO VRB01KT 9999 NCD 04/03 Q1016
LIBP 170350Z AUTO 21004KT 9999 NCD 05/04 Q1016
LIBP 170250Z AUTO 22004KT 9999 NCD 06/04 Q1016
LIBP 170150Z AUTO VRB02KT 9999 NCD 06/04 Q1016
LIBP 170050Z AUTO 20004KT 9999 NCD 06/04 Q1016
LIBP 162350Z AUTO 21006KT 9999 NCD 06/05 Q1017
LIBP 162250Z AUTO VRB02KT 9999 NCD 08/06 Q1017
LIBP 162150Z 22003KT 190V260 9999 FEW005 08/07 Q1017
LIBP 162050Z VRB02KT CAVOK 09/07 Q1016
LIBP 161950Z 20003KT CAVOK 10/09 Q1016
LIBP 161850Z VRB01KT CAVOK 12/11 Q1016
LIBP 161750Z 01003KT CAVOK 14/11 Q1016
LIBP 161650Z 03005KT CAVOK 15/11 Q1015
LIBP 161550Z 04007KT CAVOK 16/10 Q1015
LIBP 161450Z 03007KT CAVOK 16/09 Q1015
LIBP 161350Z 04007KT CAVOK 17/09 Q1014
LIBP 161250Z 04007KT CAVOK 18/08 Q1015
LIBP 161150Z 04009KT CAVOK 17/08 Q1015
LIBP 161050Z 05010KT CAVOK 18/09 Q1015
LIBP 160950Z 06008KT CAVOK 19/06 Q1015
LIBP 160850Z 06003KT 030V100 CAVOK 18/03 Q1015
LIBP 160750Z VRB02KT CAVOK 17/05 Q1015
LIBP 160650Z 26004KT 220V300 CAVOK 15/04 Q1014
LIBP 160550Z AUTO 25005KT 9999 NCD 13/02 Q1013
LIBP 160450Z AUTO 22006KT 9999 NCD 12/02 Q1013
LIBP 160350Z AUTO 25005KT 9999 NCD 11/03 Q1013
LIBP 160250Z AUTO 22005KT 9999 FEW240/// 06/03 Q1013
LIBP 160150Z AUTO 23005KT 9999 NCD 06/03 Q1013
LIBP 160050Z AUTO VRB01KT 9999 NCD 05/02 Q1014
LIBP 152350Z AUTO 22005KT 9999 NCD 06/03 Q1014
LIBP 152250Z AUTO 21005KT 9999 NCD 06/03 Q1014
LIBP 152150Z 20005KT CAVOK 08/03 Q1014

Informazioni elaborate utilizzando, tra l’altro, dati e prodotti del Servizio Meteorologico dell’Aeronautica Militare pubblicati sul sito www.meteoam.it e della National Oceanic and Atmospheric Administration (NOAA)

Ultimi caricamenti...


OK-AML Aeropartner Cessna 510 Citation Mustang

 


9A-JSC Cessna C525A Citation Jung Sky

 


MM62212 Piaggio P180 Marina Militare

Questo sito non utilizza cookie di profilazione. Il sito utilizza cookie tecnici, di analisi anonima di prima parte e di terze parti per servizi di social network.